createdAt,value
2018-12-22T00:00:06.848Z,75.05
2018-12-22T00:02:37.947Z,74.23
2018-12-22T00:05:07.223Z,74.78
2018-12-22T00:07:36.399Z,74.96
2018-12-22T00:10:16.202Z,74.58
2018-12-22T00:12:45.641Z,74.38
2018-12-22T00:15:14.879Z,74.93
2018-12-22T00:17:44.022Z,74.51
2018-12-22T00:20:13.101Z,75.02
2018-12-22T00:22:42.290Z,74.97
2018-12-22T00:25:11.663Z,74.41
2018-12-22T00:27:41.377Z,73.91
2018-12-22T00:30:10.635Z,74.04
2018-12-22T00:32:39.736Z,73.69
2018-12-22T00:35:08.828Z,73.66
2018-12-22T00:37:37.965Z,72.67
2018-12-22T00:40:07.240Z,73.07
2018-12-22T00:42:36.313Z,73.20
2018-12-22T00:45:05.801Z,72.54
2018-12-22T00:47:34.835Z,73.52
2018-12-22T00:50:04.221Z,73.46
2018-12-22T00:52:33.265Z,73.14
2018-12-22T00:55:02.531Z,73.38
2018-12-22T00:57:31.571Z,73.60
2018-12-22T01:00:00.593Z,73.42
2018-12-22T01:02:29.640Z,72.82
2018-12-22T01:04:58.763Z,72.07
2018-12-22T01:07:27.811Z,73.40
2018-12-22T01:09:56.838Z,71.72
2018-12-22T01:12:25.857Z,72.56
2018-12-22T01:14:54.883Z,72.04
2018-12-22T01:17:23.940Z,72.81
2018-12-22T01:19:53.154Z,73.05
2018-12-22T01:22:22.184Z,72.44
2018-12-22T01:24:51.280Z,72.21
2018-12-22T01:27:20.332Z,71.51
2018-12-22T01:29:49.351Z,72.28
2018-12-22T01:32:18.576Z,72.52
2018-12-22T01:34:47.690Z,72.65
2018-12-22T01:37:16.762Z,72.46
2018-12-22T01:39:45.791Z,72.18
2018-12-22T01:42:14.828Z,71.29
2018-12-22T01:44:43.909Z,72.27
2018-12-22T01:47:12.901Z,72.28
2018-12-22T01:49:41.932Z,71.65
2018-12-22T01:52:10.947Z,72.15
2018-12-22T01:54:40.284Z,72.32
2018-12-22T01:57:09.324Z,72.89
2018-12-22T01:59:38.357Z,71.95
2018-12-22T02:02:07.355Z,71.89
2018-12-22T02:04:36.383Z,71.00
2018-12-22T02:07:05.469Z,71.89
2018-12-22T02:09:34.625Z,71.07
2018-12-22T02:12:03.843Z,71.98
2018-12-22T02:14:32.820Z,70.83
2018-12-22T02:17:01.871Z,71.14
2018-12-22T02:19:30.949Z,70.86
2018-12-22T02:22:00.069Z,70.56
2018-12-22T02:24:29.163Z,70.70
2018-12-22T02:26:58.197Z,70.83
2018-12-22T02:29:27.229Z,71.00
2018-12-22T02:31:56.338Z,69.70
2018-12-22T02:34:25.383Z,70.29
2018-12-22T02:36:54.405Z,70.29
2018-12-22T02:39:23.557Z,71.03
2018-12-22T02:41:52.605Z,70.91
2018-12-22T02:44:21.636Z,69.79
2018-12-22T02:46:50.769Z,70.49
2018-12-22T02:49:19.781Z,70.33
2018-12-22T02:51:48.818Z,70.49
2018-12-22T02:54:17.868Z,70.78
2018-12-22T02:56:46.884Z,70.63
2018-12-22T02:59:15.966Z,71.06
2018-12-22T03:01:45.032Z,71.02
2018-12-22T03:04:14.069Z,70.62
2018-12-22T03:06:43.224Z,69.67
2018-12-22T03:09:12.286Z,70.37
2018-12-22T03:11:41.333Z,70.31
2018-12-22T03:14:10.459Z,70.43
2018-12-22T03:16:39.527Z,70.66
2018-12-22T03:19:08.554Z,70.36
2018-12-22T03:21:37.663Z,69.85
2018-12-22T03:24:06.651Z,69.51
2018-12-22T03:26:35.720Z,69.55
2018-12-22T03:29:04.817Z,69.93
2018-12-22T03:31:33.819Z,69.20
2018-12-22T03:34:02.839Z,68.58
2018-12-22T03:36:31.981Z,69.08
2018-12-22T03:39:01.003Z,69.92
2018-12-22T03:41:30.028Z,69.12
2018-12-22T03:43:59.099Z,69.90
2018-12-22T03:46:28.171Z,70.32
2018-12-22T03:48:57.199Z,70.81
2018-12-22T03:51:26.310Z,70.93
2018-12-22T03:53:55.404Z,71.01
2018-12-22T03:56:24.442Z,71.13
2018-12-22T03:58:53.443Z,71.73
2018-12-22T04:01:22.465Z,71.71
2018-12-22T04:03:51.525Z,72.38
2018-12-22T04:06:20.543Z,72.59
2018-12-22T04:08:49.592Z,72.59
2018-12-22T04:11:18.713Z,72.39
2018-12-22T04:13:47.742Z,72.56
2018-12-22T04:16:16.837Z,72.88
2018-12-22T04:18:45.863Z,72.06
2018-12-22T04:21:14.892Z,72.75
2018-12-22T04:23:44.874Z,72.83
2018-12-22T04:26:13.884Z,72.88
2018-12-22T04:28:42.921Z,72.85
2018-12-22T04:31:12.013Z,73.34
2018-12-22T04:33:41.072Z,73.61
2018-12-22T04:36:10.084Z,73.22
2018-12-22T04:38:39.132Z,73.06
2018-12-22T04:41:08.137Z,73.06
2018-12-22T04:43:37.168Z,72.86
2018-12-22T04:46:06.195Z,72.04
2018-12-22T04:48:35.204Z,72.12
2018-12-22T04:51:04.244Z,72.38
2018-12-22T04:53:33.286Z,73.06
2018-12-22T04:56:02.421Z,72.60
2018-12-22T04:58:31.465Z,72.17
2018-12-22T05:01:00.480Z,72.00
2018-12-22T05:03:29.493Z,71.71
2018-12-22T05:05:58.696Z,72.54
2018-12-22T05:08:27.716Z,72.00
2018-12-22T05:10:56.919Z,72.41
2018-12-22T05:13:25.977Z,71.89
2018-12-22T05:15:55.049Z,71.55
2018-12-22T05:18:24.077Z,71.20
2018-12-22T05:20:53.140Z,70.82
2018-12-22T05:23:22.166Z,70.97
2018-12-22T05:25:51.144Z,70.76
2018-12-22T05:28:20.180Z,70.93
2018-12-22T05:30:49.227Z,71.68
2018-12-22T05:33:18.287Z,71.17
2018-12-22T05:35:47.306Z,71.24
2018-12-22T05:38:16.311Z,71.63
2018-12-22T05:40:45.360Z,72.16
2018-12-22T05:43:14.408Z,71.95
2018-12-22T05:45:43.414Z,71.58
2018-12-22T05:48:18.068Z,71.80
2018-12-22T05:50:47.123Z,70.57
2018-12-22T05:53:16.125Z,71.02
2018-12-22T05:55:45.229Z,71.87
2018-12-22T05:58:14.271Z,70.79
2018-12-22T06:00:43.380Z,70.27
2018-12-22T06:03:12.425Z,70.40
2018-12-22T06:05:42.453Z,71.13
2018-12-22T06:08:11.528Z,70.46
2018-12-22T06:10:40.516Z,70.26
2018-12-22T06:13:09.596Z,69.98
2018-12-22T06:15:38.675Z,69.92
2018-12-22T06:18:07.707Z,69.94
2018-12-22T06:20:36.747Z,69.82
2018-12-22T06:23:05.796Z,69.59
2018-12-22T06:25:35.189Z,70.23
2018-12-22T06:28:04.246Z,70.38
2018-12-22T06:30:33.420Z,70.14
2018-12-22T06:33:02.491Z,70.16
2018-12-22T06:35:31.507Z,70.11
2018-12-22T06:38:01.594Z,70.59
2018-12-22T06:40:30.671Z,70.76
2018-12-22T06:42:59.824Z,70.63
2018-12-22T06:45:28.869Z,70.66
2018-12-22T06:47:58.135Z,71.46
2018-12-22T06:50:27.168Z,71.39
2018-12-22T06:52:56.194Z,71.26
2018-12-22T06:55:25.239Z,71.44
2018-12-22T06:57:54.325Z,71.38
2018-12-22T07:00:23.368Z,71.82
2018-12-22T07:02:52.401Z,72.25
2018-12-22T07:05:21.448Z,71.97
2018-12-22T07:07:50.595Z,71.96
2018-12-22T07:10:20.673Z,71.53
2018-12-22T07:12:49.764Z,71.43
2018-12-22T07:15:18.784Z,71.10
2018-12-22T07:17:47.857Z,71.31
2018-12-22T07:20:16.895Z,71.29
2018-12-22T07:22:45.931Z,71.26
2018-12-22T07:25:15.174Z,71.60
2018-12-22T07:27:44.218Z,71.21
2018-12-22T07:30:13.436Z,71.01
2018-12-22T07:32:42.459Z,70.82
2018-12-22T07:35:11.496Z,71.80
2018-12-22T07:37:40.917Z,71.68
2018-12-22T07:40:09.937Z,71.73
2018-12-22T07:42:39.486Z,71.26
2018-12-22T07:45:09.590Z,72.01
2018-12-22T07:47:38.730Z,72.04
2018-12-22T07:50:08.035Z,72.62
2018-12-22T07:52:37.069Z,72.78
2018-12-22T07:55:06.746Z,71.89
2018-12-22T07:57:35.866Z,72.65
2018-12-22T08:00:05.545Z,72.16
2018-12-22T08:02:34.667Z,72.51
2018-12-22T08:05:04.068Z,72.39
2018-12-22T08:07:33.112Z,72.81
2018-12-22T08:10:02.529Z,72.49
2018-12-22T08:12:31.664Z,71.79
2018-12-22T08:15:00.706Z,70.63
2018-12-22T08:17:29.738Z,70.48
2018-12-22T08:19:59.033Z,67.40
2018-12-22T08:22:28.077Z,65.84
2018-12-22T08:24:57.105Z,62.85
2018-12-22T08:27:27.180Z,59.25
2018-12-22T08:29:56.220Z,62.12
2018-12-22T08:32:25.247Z,63.73
2018-12-22T08:34:54.310Z,65.93
2018-12-22T08:37:23.420Z,66.31
2018-12-22T08:39:52.543Z,66.13
2018-12-22T08:42:21.580Z,65.94
2018-12-22T08:44:50.611Z,65.82
2018-12-22T08:47:20.724Z,66.98
2018-12-22T08:49:49.821Z,66.47
2018-12-22T08:52:18.946Z,66.99
2018-12-22T08:54:48.597Z,65.54
2018-12-22T08:57:18.020Z,65.21
2018-12-22T08:59:47.080Z,64.29
2018-12-22T09:02:16.236Z,65.08
2018-12-22T09:04:45.647Z,66.30
2018-12-22T09:07:15.339Z,64.59
2018-12-22T09:09:44.425Z,64.37
2018-12-22T09:12:13.466Z,64.02
2018-12-22T09:14:42.534Z,64.50
2018-12-22T09:17:11.620Z,64.11
2018-12-22T09:19:40.651Z,64.14
2018-12-22T09:22:09.690Z,64.49
2018-12-22T09:24:38.763Z,64.86
2018-12-22T09:27:07.795Z,64.98
2018-12-22T09:31:01.187Z,64.68
2018-12-22T09:33:30.586Z,64.16
2018-12-22T09:35:59.662Z,62.62
2018-12-22T09:38:28.729Z,63.43
2018-12-22T09:40:57.746Z,63.39
2018-12-22T09:43:26.765Z,64.50
2018-12-22T09:45:55.938Z,64.43
2018-12-22T09:48:25.036Z,64.46
2018-12-22T09:50:54.117Z,64.22
2018-12-22T09:53:23.217Z,64.14
2018-12-22T09:55:52.294Z,63.78
2018-12-22T09:58:21.335Z,63.06
2018-12-22T10:00:50.501Z,62.65
2018-12-22T10:03:19.538Z,62.69
2018-12-22T10:05:48.572Z,62.51
2018-12-22T10:08:17.716Z,61.34
2018-12-22T10:10:47.099Z,61.04
2018-12-22T10:13:16.692Z,61.89
2018-12-22T10:15:45.898Z,61.82
2018-12-22T10:18:14.966Z,63.10
2018-12-22T10:20:44.020Z,61.45
2018-12-22T10:23:13.849Z,61.56
2018-12-22T10:25:42.959Z,61.38
2018-12-22T10:28:11.994Z,61.87
2018-12-22T10:30:41.059Z,61.68
2018-12-22T10:33:10.639Z,62.17
2018-12-22T10:35:39.701Z,61.51
2018-12-22T10:38:08.770Z,62.39
2018-12-22T10:40:37.832Z,61.17
2018-12-22T10:43:06.927Z,60.67
2018-12-22T10:45:36.160Z,60.36
2018-12-22T10:48:05.201Z,61.07
2018-12-22T10:50:34.326Z,60.24
2018-12-22T10:53:03.492Z,60.29
2018-12-22T10:55:32.559Z,60.24
2018-12-22T10:58:01.596Z,60.30
2018-12-22T11:00:30.624Z,60.10
2018-12-22T11:02:59.777Z,59.49
2018-12-22T11:05:28.864Z,60.22
2018-12-22T11:07:58.400Z,59.57
2018-12-22T11:10:28.055Z,58.93
2018-12-22T11:12:59.604Z,58.51
2018-12-22T11:15:30.967Z,58.63
2018-12-22T11:18:00.177Z,58.43
2018-12-22T11:20:30.402Z,59.13
2018-12-22T11:22:59.449Z,59.11
2018-12-22T11:25:29.433Z,58.30
2018-12-22T11:27:58.637Z,58.07
2018-12-22T11:30:34.681Z,57.66
2018-12-22T11:33:03.992Z,55.90
2018-12-22T11:35:33.151Z,55.95
2018-12-22T11:38:02.228Z,56.50
2018-12-22T11:40:31.320Z,55.26
2018-12-22T11:43:00.380Z,55.69
2018-12-22T11:45:30.290Z,56.66
2018-12-22T11:48:24.069Z,57.58
2018-12-22T11:50:53.182Z,57.98
2018-12-22T11:53:22.264Z,58.88
2018-12-22T11:55:52.373Z,61.03
2018-12-22T11:58:28.103Z,63.22
2018-12-22T12:00:57.177Z,61.37
2018-12-22T12:03:26.224Z,60.88
2018-12-22T12:05:55.897Z,60.27
2018-12-22T12:08:24.947Z,60.43
2018-12-22T12:10:54.998Z,59.71
2018-12-22T12:13:24.256Z,60.44
2018-12-22T12:16:00.011Z,62.52
2018-12-22T12:19:41.101Z,61.09
2018-12-22T12:22:10.110Z,61.18
2018-12-22T12:24:41.187Z,61.32
2018-12-22T12:27:10.197Z,60.40
2018-12-22T12:29:39.625Z,61.78
2018-12-22T12:32:08.679Z,60.25
2018-12-22T12:34:37.837Z,59.68
2018-12-22T12:37:25.321Z,59.25
2018-12-22T12:39:56.058Z,59.86
2018-12-22T12:42:25.089Z,60.45
2018-12-22T12:44:54.173Z,61.08
2018-12-22T12:47:23.395Z,59.81
2018-12-22T12:49:53.192Z,60.37
2018-12-22T12:52:22.498Z,60.87
2018-12-22T12:54:51.785Z,61.25
2018-12-22T12:57:20.936Z,60.33
2018-12-22T12:59:50.042Z,59.99
2018-12-22T13:02:19.139Z,61.30
2018-12-22T13:04:48.186Z,61.84
2018-12-22T13:07:17.356Z,62.48
2018-12-22T13:09:46.673Z,62.49
2018-12-22T13:12:19.404Z,62.54
2018-12-22T13:14:50.333Z,63.54
2018-12-22T13:17:20.767Z,64.50
2018-12-22T13:19:50.079Z,63.93
2018-12-22T13:22:19.179Z,65.00
2018-12-22T13:27:20.305Z,65.52
2018-12-22T13:29:49.385Z,66.10
2018-12-22T13:32:18.665Z,68.07
2018-12-22T13:34:48.803Z,69.44
2018-12-22T13:37:17.962Z,70.78
2018-12-22T13:39:47.184Z,71.40
2018-12-22T13:42:16.367Z,70.63
2018-12-22T13:44:45.520Z,70.44
2018-12-22T13:47:14.578Z,72.32
2018-12-22T13:49:43.965Z,72.16
2018-12-22T13:52:13.139Z,72.33
2018-12-22T13:54:43.207Z,71.31
2018-12-22T13:57:12.315Z,71.40
2018-12-22T13:59:41.499Z,72.44
2018-12-22T14:02:17.981Z,72.77
2018-12-22T14:04:41.781Z,71.73
2018-12-22T14:07:12.253Z,71.78
2018-12-22T14:09:41.336Z,71.40
2018-12-22T14:12:10.433Z,70.89
2018-12-22T14:14:40.887Z,70.63
2018-12-22T14:17:18.433Z,71.45
2018-12-22T14:19:55.407Z,71.91
2018-12-22T14:22:24.475Z,71.44
2018-12-22T14:24:54.496Z,72.25
2018-12-22T14:27:23.552Z,72.57
2018-12-22T14:29:52.594Z,72.64
2018-12-22T14:32:26.855Z,73.62
2018-12-22T14:34:56.416Z,73.48
2018-12-22T14:37:25.499Z,72.98
2018-12-22T14:39:54.580Z,73.68
2018-12-22T14:42:23.653Z,74.10
2018-12-22T14:46:16.947Z,73.91
2018-12-22T14:48:46.043Z,74.23
2018-12-22T14:51:15.195Z,75.50
2018-12-22T14:53:44.275Z,74.57
2018-12-22T14:56:13.928Z,75.43
2018-12-22T14:58:43.259Z,73.95
2018-12-22T15:01:12.539Z,73.98
2018-12-22T15:03:41.719Z,74.20
2018-12-22T15:06:10.786Z,75.34
2018-12-22T15:08:39.881Z,75.34
2018-12-22T15:11:09.254Z,75.87
2018-12-22T15:13:38.420Z,74.20
2018-12-22T15:16:07.545Z,74.58
2018-12-22T15:18:36.562Z,74.01
2018-12-22T15:21:05.618Z,73.71
2018-12-22T15:23:34.646Z,73.84
2018-12-22T15:26:03.712Z,74.39
2018-12-22T15:28:32.741Z,74.75
2018-12-22T15:31:02.852Z,73.81
2018-12-22T15:33:32.146Z,74.00
2018-12-22T15:36:01.195Z,73.82
2018-12-22T15:38:30.420Z,72.89
2018-12-22T15:40:59.546Z,72.95
2018-12-22T15:43:28.666Z,72.80
2018-12-22T15:45:57.738Z,73.86
2018-12-22T15:48:26.897Z,72.39
2018-12-22T15:50:56.015Z,72.62
2018-12-22T15:53:25.066Z,71.97
2018-12-22T15:55:56.202Z,73.21
2018-12-22T15:58:25.246Z,72.84
2018-12-22T16:00:54.330Z,72.35
2018-12-22T16:03:23.374Z,72.84
2018-12-22T16:05:52.456Z,74.15
2018-12-22T16:08:21.521Z,74.24
2018-12-22T16:10:50.653Z,74.27
2018-12-22T16:13:20.751Z,73.83
2018-12-22T16:15:49.898Z,75.03
2018-12-22T16:18:19.037Z,75.55
2018-12-22T16:20:54.716Z,75.60
2018-12-22T16:23:23.844Z,74.72
2018-12-22T16:25:52.874Z,75.43
2018-12-22T16:28:25.963Z,74.91
2018-12-22T16:30:57.053Z,75.15
2018-12-22T16:33:26.347Z,75.22
2018-12-22T16:35:55.400Z,74.98
2018-12-22T16:38:24.516Z,74.92
2018-12-22T16:40:53.643Z,74.88
2018-12-22T16:43:22.911Z,74.96
2018-12-22T16:45:52.417Z,74.18
2018-12-22T16:48:23.650Z,73.90
2018-12-22T16:50:52.727Z,74.14
2018-12-22T16:53:21.769Z,73.96
2018-12-22T16:55:50.995Z,74.33
2018-12-22T16:58:31.696Z,74.14
2018-12-22T17:01:10.657Z,74.11
2018-12-22T17:03:39.782Z,74.33
2018-12-22T17:06:09.543Z,73.06
2018-12-22T17:11:06.171Z,74.12
2018-12-22T17:13:35.296Z,73.44
2018-12-22T17:16:05.534Z,73.52
2018-12-22T17:18:34.945Z,73.57
2018-12-22T17:21:58.864Z,73.67
2018-12-22T17:24:35.319Z,73.81
2018-12-22T17:27:04.339Z,73.69
2018-12-22T17:29:33.373Z,73.74
2018-12-22T17:32:02.407Z,73.55
2018-12-22T17:34:31.652Z,73.60
2018-12-22T17:37:05.855Z,73.86
2018-12-22T17:39:37.719Z,73.08
2018-12-22T17:42:07.630Z,72.59
2018-12-22T17:44:39.810Z,72.67
2018-12-22T17:47:17.820Z,72.89
2018-12-22T17:49:50.511Z,72.79
2018-12-22T17:52:20.781Z,71.85
2018-12-22T17:54:49.934Z,72.21
2018-12-22T17:57:25.819Z,72.73
2018-12-22T18:00:02.644Z,72.75
2018-12-22T18:02:34.338Z,72.12
2018-12-22T18:05:03.506Z,72.30
2018-12-22T18:07:33.386Z,72.29
2018-12-22T18:10:05.283Z,72.43
2018-12-22T18:12:35.490Z,72.18
2018-12-22T18:15:06.243Z,71.88
2018-12-22T18:17:35.484Z,72.16
2018-12-22T18:20:05.160Z,72.20
2018-12-22T18:22:34.286Z,72.30
2018-12-22T18:25:03.592Z,72.05
2018-12-22T18:27:32.718Z,72.37
2018-12-22T18:30:01.964Z,71.90
2018-12-22T18:32:37.565Z,71.85
2018-12-22T18:35:09.677Z,72.19
2018-12-22T18:37:38.919Z,72.13
2018-12-22T18:40:12.802Z,71.68
2018-12-22T18:42:42.114Z,71.98
2018-12-22T18:45:14.460Z,71.79
2018-12-22T18:47:45.311Z,71.61
2018-12-22T18:50:19.219Z,72.45
2018-12-22T18:52:48.592Z,72.45
2018-12-22T18:55:17.790Z,72.44
2018-12-22T18:57:49.270Z,72.43
2018-12-22T19:00:21.049Z,72.61
2018-12-22T19:02:52.622Z,72.35
2018-12-22T19:05:22.579Z,71.88
2018-12-22T19:07:56.059Z,72.54
2018-12-22T19:10:35.087Z,72.59
2018-12-22T19:13:04.388Z,72.08
2018-12-22T19:15:33.693Z,72.05
2018-12-22T19:18:02.860Z,73.15
2018-12-22T19:20:44.669Z,73.09
2018-12-22T19:23:21.719Z,73.83
2018-12-22T19:25:51.800Z,73.86
2018-12-22T19:28:22.873Z,73.64
2018-12-22T19:30:51.994Z,73.41
2018-12-22T19:33:21.009Z,73.48
2018-12-22T19:35:50.063Z,73.60
2018-12-22T19:38:19.114Z,73.78
2018-12-22T19:40:50.164Z,73.11
2018-12-22T19:43:19.240Z,73.25
2018-12-22T19:45:48.307Z,73.36
2018-12-22T19:48:17.747Z,73.27
2018-12-22T19:50:46.854Z,73.44
2018-12-22T19:53:15.872Z,73.47
2018-12-22T19:55:44.963Z,73.23
2018-12-22T19:58:13.973Z,73.54
2018-12-22T20:00:43.015Z,73.34
2018-12-22T20:03:12.155Z,73.22
2018-12-22T20:05:41.412Z,73.19
2018-12-22T20:08:10.498Z,72.79
2018-12-22T20:10:39.484Z,72.77
2018-12-22T20:13:08.599Z,71.60
2018-12-22T20:15:37.659Z,72.86
2018-12-22T20:18:06.845Z,71.90
2018-12-22T20:20:35.939Z,72.39
2018-12-22T20:23:04.979Z,71.74
2018-12-22T20:25:34.047Z,72.09
2018-12-22T20:28:03.100Z,71.99
2018-12-22T20:30:32.119Z,71.43
2018-12-22T20:33:01.457Z,72.47
2018-12-22T20:35:30.577Z,72.35
2018-12-22T20:37:59.636Z,71.88
2018-12-22T20:40:28.669Z,72.15
2018-12-22T20:42:57.930Z,72.03
2018-12-22T20:45:26.982Z,71.86
2018-12-22T20:47:56.068Z,72.41
2018-12-22T20:50:25.114Z,72.16
2018-12-22T20:52:54.309Z,72.62
2018-12-22T20:55:23.357Z,72.57
2018-12-22T20:57:52.381Z,72.94
2018-12-22T21:00:21.429Z,72.43
2018-12-22T21:02:50.501Z,72.45
2018-12-22T21:05:20.944Z,71.73
2018-12-22T21:07:50.021Z,71.55
2018-12-22T21:10:19.458Z,71.76
2018-12-22T21:12:48.497Z,71.43
2018-12-22T21:15:17.537Z,72.05
2018-12-22T21:17:46.586Z,72.04
2018-12-22T21:20:15.698Z,71.49
2018-12-22T21:22:44.901Z,71.93
2018-12-22T21:25:14.012Z,71.96
2018-12-22T21:27:43.136Z,72.38
2018-12-22T21:30:12.207Z,71.68
2018-12-22T21:32:41.208Z,71.82
2018-12-22T21:35:10.772Z,71.11
2018-12-22T21:37:39.786Z,71.19
2018-12-22T21:40:08.997Z,71.27
2018-12-22T21:42:38.019Z,71.72
2018-12-22T21:45:07.476Z,71.51
2018-12-22T21:47:36.557Z,71.43
2018-12-22T21:50:06.930Z,70.60
2018-12-22T21:52:36.117Z,70.95
2018-12-22T21:55:07.582Z,70.92
2018-12-22T21:57:38.268Z,71.10
2018-12-22T22:00:07.315Z,70.78
2018-12-22T22:02:37.439Z,70.25
2018-12-22T22:05:06.798Z,70.33
2018-12-22T22:07:36.053Z,70.22
2018-12-22T22:10:05.227Z,70.43
2018-12-22T22:12:34.250Z,70.92
2018-12-22T22:15:03.902Z,71.22
2018-12-22T22:17:33.154Z,70.92
2018-12-22T22:20:02.210Z,71.32
2018-12-22T22:22:31.330Z,70.65
2018-12-22T22:25:00.411Z,71.32
2018-12-22T22:27:29.535Z,71.52
2018-12-22T22:29:59.636Z,72.02
2018-12-22T22:32:28.692Z,70.48
2018-12-22T22:34:57.708Z,71.09
2018-12-22T22:37:26.761Z,70.84
2018-12-22T22:39:55.922Z,70.86
2018-12-22T22:42:24.994Z,70.79
2018-12-22T22:44:56.443Z,70.74
2018-12-22T22:47:25.498Z,70.73
2018-12-22T22:49:54.738Z,71.22
2018-12-22T22:52:23.914Z,71.09
2018-12-22T22:54:53.116Z,70.59
2018-12-22T22:57:22.156Z,70.14
2018-12-22T22:59:51.271Z,69.86
2018-12-22T23:02:20.287Z,71.12
2018-12-22T23:04:54.336Z,71.21
2018-12-22T23:07:20.480Z,70.72
2018-12-22T23:09:49.574Z,69.94
2018-12-22T23:12:18.622Z,70.55
2018-12-22T23:14:47.792Z,69.59
2018-12-22T23:17:16.845Z,70.85
2018-12-22T23:19:45.894Z,70.48
2018-12-22T23:22:14.982Z,70.51
2018-12-22T23:24:44.037Z,70.21
2018-12-22T23:27:13.191Z,70.39
2018-12-22T23:29:42.245Z,70.56
2018-12-22T23:32:11.316Z,70.59
2018-12-22T23:34:40.417Z,70.22
2018-12-22T23:37:09.440Z,69.60
2018-12-22T23:39:38.453Z,69.26
2018-12-22T23:42:07.499Z,68.93
2018-12-22T23:44:36.541Z,69.63
2018-12-22T23:47:05.624Z,68.51
2018-12-22T23:49:34.673Z,69.66
2018-12-22T23:52:04.013Z,69.69
2018-12-22T23:54:33.115Z,69.95
2018-12-22T23:57:02.109Z,69.30
2018-12-22T23:59:31.141Z,69.33
